Reinhold Schulte — 9V6035 — position and weather

sailwx.info

Track history (hours):
 
Tides and Currents Weather Stations Pressure Air Temp Water Temp Dewpoint Dewpoint Depression Visibility Wind Speed Wind Dir Waves Ship Positions

Reinhold Schulte

Last reported at 2017-Dec-16 14:07 UTC. Time now 2017-Dec-17 12:04 UTC.
Position N 40°31' W 074°15'.

Length 178 m; draft 8.3 m.

Type: Ship (hazmat cat B). MMSI: 566572000.

Date/timePositionNaut miles runAvg speedWind from/ knotsBaromVisibWave heightAir tempDewpointWater temp
2017-Dec-16 14:07N 40°31' W 074°15'0 0.1
2017-Dec-16 14:00N 40°31' W 074°15'2 3.0
2017-Dec-16 13:18N 40°29' W 074°14'2 7.1
2017-Dec-16 13:00N 40°30' W 074°12'612.0
2017-Dec-16 12:29N 40°29' W 074°04'4 8.8
2017-Dec-16 12:00N 40°28' W 073°58'5 9.0
2017-Dec-16 11:29N 40°27' W 073°53'4 8.2
2017-Dec-16 11:00N 40°27' W 073°47'4 6.4
2017-Dec-16 10:27N 40°23' W 073°47'  
Track history (hours):
 
Tides and Currents Weather Stations Pressure Air Temp Water Temp Dewpoint Dewpoint Depression Visibility Wind Speed Wind Dir Waves Ship Positions

Reinhold Schulte

Last reported at 2017-Dec-16 14:07 UTC. Time now 2017-Dec-17 12:04 UTC.
Position N 40°31' W 074°15'.

Length 178 m; draft 8.3 m.

Type: Ship (hazmat cat B). MMSI: 566572000.

Date/timePositionNaut miles runAvg speedWind from/ knotsBaromVisibWave heightAir tempDewpointWater temp
2017-Dec-16 14:07N 40°31' W 074°15'0 0.1
2017-Dec-16 14:00N 40°31' W 074°15'2 3.0
2017-Dec-16 13:18N 40°29' W 074°14'2 7.1
2017-Dec-16 13:00N 40°30' W 074°12'612.0
2017-Dec-16 12:29N 40°29' W 074°04'4 8.8
2017-Dec-16 12:00N 40°28' W 073°58'5 9.0
2017-Dec-16 11:29N 40°27' W 073°53'4 8.2
2017-Dec-16 11:00N 40°27' W 073°47'4 6.4
2017-Dec-16 10:27N 40°23' W 073°47'  

Dump ship's entire track history